aviador You're here:

KPRN Decoded Metar

in _UNIDENTIFIED
Report Time2017-07-21 13:56:00
UTC Time2017-07-21 14:49:27
Flight Rules vfr VFR
WindVRB at 03 kt
Visibility9999 m
Phenomena:N/A
Clouds:N/A
Expected CloudBase > 3,600 ft AGL from Temp-Dew spread
CeilingNone
Temp31°C (ISA +17)
Dew Point22°C (59% RH)
Heat Index34.6°C
QNH1018 hPa
Density Alt2,566 ft
Elevation453 ft
Report Wrong Elevation
Raw Report
METAR KPRN 211356Z AUTO VRB03KT 10SM CLR 31/22 A3006 RMK AO2 SLP172
T03060222=

Extra information for KPRN:More info

Metar Taf Metar & Taf Last 4 Metars F.Rules Stats Wind Profile Meteogram Temp Stats Metar ALERT Operation Metar Decoded Social comments